Time;durP1;ratioP1;P1;durP2;ratioP2;P2;SDS_P1;SDS_P2;PMS_P1;PMS_P2;Temp;Humidity;BMP_temperature;BMP_pressure;BME280_temperature;BME280_humidity;BME280_pressure;Samples;Min_cycle;Max_cycle;Signal;HPM_P1;HPM_P2
2021/07/09 00:01:16;;;;;;;39.47;26.75;;;16.50;99.90;;;;;;5072337;28;20049;-50
2021/07/09 00:03:43;;;;;;;37.10;27.52;;;16.50;99.90;;;;;;5084430;28;20077;-51
2021/07/09 00:06:12;;;;;;;39.55;28.25;;;16.50;99.90;;;;;;5090389;28;20476;-50
2021/07/09 00:08:39;;;;;;;34.78;26.40;;;16.40;99.90;;;;;;5080831;28;20051;-49
2021/07/09 00:11:05;;;;;;;39.17;27.48;;;16.40;99.90;;;;;;5069647;28;20049;-49
2021/07/09 00:13:32;;;;;;;36.42;27.35;;;16.50;99.90;;;;;;5069624;28;20048;-52
2021/07/09 00:15:59;;;;;;;39.78;26.48;;;16.40;99.90;;;;;;5082073;28;20074;-51
2021/07/09 00:18:25;;;;;;;35.55;27.70;;;16.40;99.90;;;;;;5088563;28;20043;-53
2021/07/09 00:20:51;;;;;;;38.42;26.95;;;16.40;99.90;;;;;;5090881;28;20044;-53
2021/07/09 00:23:18;;;;;;;44.78;29.35;;;16.40;99.90;;;;;;5090480;28;20147;-51
2021/07/09 00:25:46;;;;;;;39.33;27.15;;;16.40;99.90;;;;;;5090431;28;20047;-50
2021/07/09 00:28:13;;;;;;;46.97;29.27;;;16.30;99.90;;;;;;5091285;28;20048;-50
2021/07/09 00:30:39;;;;;;;43.17;28.52;;;16.30;99.90;;;;;;5081216;28;20592;-49
2021/07/09 00:33:05;;;;;;;39.83;27.50;;;16.30;99.90;;;;;;5081845;28;20051;-51
2021/07/09 00:35:34;;;;;;;45.13;30.67;;;16.30;99.90;;;;;;5089938;28;20109;-53
2021/07/09 00:38:00;;;;;;;43.13;29.85;;;16.30;99.90;;;;;;5080942;28;20049;-49
2021/07/09 00:40:27;;;;;;;32.05;25.20;;;16.30;99.90;;;;;;5068960;28;20555;-50
2021/07/09 00:42:53;;;;;;;41.63;26.95;;;16.30;99.90;;;;;;5087282;28;20056;-52
2021/07/09 00:45:19;;;;;;;37.67;27.02;;;16.30;99.90;;;;;;5076257;28;20140;-51
2021/07/09 00:47:47;;;;;;;37.55;27.80;;;16.30;99.90;;;;;;5076204;28;20499;-50
2021/07/09 00:50:14;;;;;;;41.08;29.35;;;16.30;99.90;;;;;;5087080;28;20058;-50
2021/07/09 00:52:42;;;;;;;40.10;28.80;;;16.30;99.90;;;;;;5070010;28;20041;-50
2021/07/09 00:55:11;;;;;;;42.88;29.90;;;16.30;99.90;;;;;;5069910;28;20512;-51
2021/07/09 00:57:40;;;;;;;45.53;30.80;;;16.30;99.90;;;;;;5069280;28;20048;-52
2021/07/09 01:00:09;;;;;;;42.13;28.90;;;16.30;99.90;;;;;;5070245;28;20070;-50
2021/07/09 01:02:37;;;;;;;48.70;30.70;;;16.30;99.90;;;;;;5078565;28;20048;-50
2021/07/09 01:05:08;;;;;;;42.35;29.65;;;16.30;99.90;;;;;;5084035;28;20147;-52
2021/07/09 01:07:35;;;;;;;49.70;30.70;;;16.30;99.90;;;;;;5079736;28;20078;-50
2021/07/09 01:10:03;;;;;;;42.67;28.27;;;16.30;99.90;;;;;;5089290;28;20048;-50
2021/07/09 01:12:30;;;;;;;44.63;30.88;;;16.30;99.90;;;;;;5077577;28;20618;-50
2021/07/09 01:14:56;;;;;;;45.38;29.73;;;16.30;99.90;;;;;;5071479;28;20087;-52
2021/07/09 01:17:22;;;;;;;48.40;31.13;;;16.30;99.90;;;;;;5073610;28;20468;-51
2021/07/09 01:19:49;;;;;;;45.50;31.30;;;16.30;99.90;;;;;;5068572;28;20528;-50
2021/07/09 01:22:15;;;;;;;47.58;31.55;;;16.30;99.90;;;;;;5068136;28;20106;-50
2021/07/09 01:24:45;;;;;;;49.88;31.20;;;16.30;99.90;;;;;;5067958;28;20775;-51
2021/07/09 01:27:11;;;;;;;44.42;31.17;;;16.30;99.90;;;;;;5068126;28;20147;-50
2021/07/09 01:29:37;;;;;;;42.42;29.58;;;16.30;99.90;;;;;;5068225;28;20605;-51
2021/07/09 01:32:05;;;;;;;44.53;30.67;;;16.30;99.90;;;;;;5062095;28;20048;-51
2021/07/09 01:34:31;;;;;;;44.05;29.98;;;16.20;99.90;;;;;;5075632;28;20134;-51
2021/07/09 01:37:18;;;;;;;49.05;30.73;;;16.30;99.90;;;;;;5087969;28;20052;-49
2021/07/09 01:39:45;;;;;;;44.85;31.33;;;16.20;99.90;;;;;;5070716;28;20056;-52
2021/07/09 01:42:12;;;;;;;51.78;32.67;;;16.20;99.90;;;;;;5074344;28;20155;-49
2021/07/09 01:44:47;;;;;;;50.10;32.78;;;16.20;99.90;;;;;;5068106;28;20559;-49
2021/07/09 01:47:14;;;;;;;47.95;32.03;;;16.20;99.90;;;;;;5073619;28;20515;-49
2021/07/09 01:49:59;;;;;;;46.08;32.72;;;16.10;99.90;;;;;;5075000;28;20080;-52
2021/07/09 01:52:26;;;;;;;49.88;31.70;;;16.10;99.90;;;;;;5069384;28;20049;-52
2021/07/09 01:54:53;;;;;;;49.97;31.88;;;16.10;99.90;;;;;;5078058;28;20048;-51
2021/07/09 01:57:21;;;;;;;47.45;32.92;;;16.10;99.90;;;;;;5076172;28;20831;-48
2021/07/09 01:59:47;;;;;;;43.40;32.05;;;16.10;99.90;;;;;;5087829;28;20051;-52
2021/07/09 02:02:14;;;;;;;46.50;32.20;;;16.10;99.90;;;;;;5085825;28;20130;-48
2021/07/09 02:04:48;;;;;;;54.08;33.83;;;16.10;99.90;;;;;;5087994;28;20052;-49
2021/07/09 02:07:19;;;;;;;49.72;32.40;;;16.00;99.90;;;;;;5087694;28;20145;-48
2021/07/09 02:09:47;;;;;;;49.55;33.67;;;16.00;99.90;;;;;;5066583;28;20070;-49
2021/07/09 02:12:19;;;;;;;49.78;31.88;;;15.90;99.90;;;;;;5067328;28;20460;-50
2021/07/09 02:14:47;;;;;;;50.00;32.67;;;15.90;99.90;;;;;;5069196;28;20485;-49
2021/07/09 02:17:16;;;;;;;49.38;32.25;;;15.90;99.90;;;;;;5071107;28;20044;-49
2021/07/09 02:19:48;;;;;;;49.38;33.85;;;15.90;99.90;;;;;;5084891;28;20450;-50
2021/07/09 02:22:19;;;;;;;54.25;32.90;;;15.90;99.90;;;;;;5068181;28;20118;-50
2021/07/09 02:24:47;;;;;;;51.88;33.50;;;15.90;99.90;;;;;;5062659;28;20054;-50
2021/07/09 02:27:16;;;;;;;50.22;32.63;;;15.90;99.90;;;;;;5087881;28;20047;-48
2021/07/09 02:29:43;;;;;;;50.80;34.03;;;15.80;99.90;;;;;;5086816;28;20172;-50
2021/07/09 02:32:13;;;;;;;49.15;33.20;;;15.80;99.90;;;;;;5081619;28;20055;-50
2021/07/09 02:34:40;;;;;;;53.60;34.00;;;15.80;99.90;;;;;;5075130;28;20523;-50
2021/07/09 02:37:08;;;;;;;54.17;35.00;;;15.80;99.90;;;;;;5087726;28;20075;-49
2021/07/09 02:39:35;;;;;;;52.90;34.13;;;15.80;99.90;;;;;;5087338;28;20052;-49
2021/07/09 02:42:01;;;;;;;51.65;34.05;;;15.80;99.90;;;;;;5087690;28;20055;-49
2021/07/09 02:44:30;;;;;;;46.45;32.60;;;15.80;99.90;;;;;;5081049;28;20056;-51
2021/07/09 02:47:00;;;;;;;58.33;34.80;;;15.80;99.90;;;;;;5086747;28;20044;-49
2021/07/09 02:49:27;;;;;;;47.78;33.42;;;15.90;99.90;;;;;;5087692;28;20056;-51
2021/07/09 02:51:53;;;;;;;48.20;33.72;;;15.80;99.90;;;;;;5087484;28;20189;-48
2021/07/09 02:54:19;;;;;;;51.35;33.45;;;15.80;99.90;;;;;;5087487;28;20048;-47
2021/07/09 02:56:46;;;;;;;49.45;33.28;;;15.80;99.90;;;;;;5075468;28;20051;-49
2021/07/09 02:59:13;;;;;;;60.70;33.45;;;15.80;99.90;;;;;;5085566;28;20063;-49
2021/07/09 03:01:42;;;;;;;52.25;34.95;;;15.80;99.90;;;;;;5078341;28;20056;-49
2021/07/09 03:04:09;;;;;;;50.10;33.17;;;15.80;99.90;;;;;;5087642;28;20090;-50
2021/07/09 03:06:36;;;;;;;57.97;35.42;;;15.80;99.90;;;;;;5094081;28;20052;-50
2021/07/09 03:09:04;;;;;;;52.92;34.15;;;15.70;99.90;;;;;;5091384;28;20051;-49
2021/07/09 03:11:32;;;;;;;49.30;32.50;;;15.70;99.90;;;;;;5091325;28;20052;-49
2021/07/09 03:14:05;;;;;;;61.28;35.38;;;15.70;99.90;;;;;;5079784;28;20056;-50
2021/07/09 03:16:32;;;;;;;57.17;37.35;;;15.70;99.90;;;;;;5070792;28;20136;-51
2021/07/09 03:19:00;;;;;;;57.58;36.03;;;15.60;99.90;;;;;;5070175;28;20048;-49
2021/07/09 03:21:29;;;;;;;65.15;37.58;;;15.60;99.90;;;;;;5076562;28;20052;-49
2021/07/09 03:23:58;;;;;;;58.70;36.03;;;15.60;99.90;;;;;;5080373;28;20043;-49
2021/07/09 03:26:25;;;;;;;58.85;36.72;;;15.60;99.90;;;;;;5072405;28;20048;-50
2021/07/09 03:28:57;;;;;;;55.30;36.17;;;15.60;99.90;;;;;;5090767;28;20060;-50
2021/07/09 03:31:24;;;;;;;65.15;38.17;;;15.50;99.90;;;;;;5089918;28;20051;-51
2021/07/09 03:33:51;;;;;;;60.00;37.72;;;15.50;99.90;;;;;;5073078;28;20056;-49
2021/07/09 03:36:17;;;;;;;55.00;36.95;;;15.50;99.90;;;;;;5088646;28;20502;-48
2021/07/09 03:38:46;;;;;;;60.00;39.75;;;15.50;99.90;;;;;;5071920;28;20044;-49
2021/07/09 03:41:13;;;;;;;57.80;38.13;;;15.50;99.90;;;;;;5077380;28;20074;-50
2021/07/09 03:43:39;;;;;;;56.72;37.05;;;15.50;99.90;;;;;;5067978;28;20088;-49
2021/07/09 03:46:05;;;;;;;60.17;40.47;;;15.50;99.90;;;;;;5077517;28;20057;-48
2021/07/09 03:48:34;;;;;;;53.92;38.03;;;15.50;99.90;;;;;;5083871;28;20056;-52
2021/07/09 03:51:02;;;;;;;52.78;39.25;;;15.50;99.90;;;;;;5090624;28;20059;-47
2021/07/09 03:53:29;;;;;;;55.03;38.58;;;15.50;99.90;;;;;;5090846;28;20688;-49
2021/07/09 03:55:55;;;;;;;55.22;39.60;;;15.50;99.90;;;;;;5087345;28;20051;-49
2021/07/09 03:58:24;;;;;;;56.00;38.83;;;15.50;99.90;;;;;;5079582;28;20055;-49
2021/07/09 04:00:52;;;;;;;55.35;38.70;;;15.50;99.90;;;;;;5070360;28;20053;-48
2021/07/09 04:03:18;;;;;;;51.45;37.58;;;15.50;99.90;;;;;;5079762;28;20669;-48
2021/07/09 04:05:45;;;;;;;55.95;37.90;;;15.50;99.90;;;;;;5091267;28;20047;-50
2021/07/09 04:08:11;;;;;;;57.53;39.10;;;15.40;99.90;;;;;;5071801;28;20497;-48
2021/07/09 04:10:37;;;;;;;59.70;39.92;;;15.50;99.90;;;;;;5069623;28;20465;-51
2021/07/09 04:13:03;;;;;;;53.13;37.47;;;15.40;99.90;;;;;;5070353;28;20075;-48
2021/07/09 04:15:32;;;;;;;59.40;38.50;;;15.40;99.90;;;;;;5070384;28;20044;-50
2021/07/09 04:17:59;;;;;;;56.75;38.33;;;15.40;99.90;;;;;;5062609;28;20072;-50
2021/07/09 04:20:25;;;;;;;55.30;38.72;;;15.40;99.90;;;;;;5089920;28;20523;-49
2021/07/09 04:22:57;;;;;;;57.30;38.30;;;15.40;99.90;;;;;;5089846;28;20567;-49
2021/07/09 04:25:24;;;;;;;61.97;38.28;;;15.40;99.90;;;;;;5093984;28;20051;-48
2021/07/09 04:27:50;;;;;;;51.35;37.28;;;15.30;99.90;;;;;;5077040;28;20040;-49
2021/07/09 04:30:17;;;;;;;56.90;36.97;;;15.30;99.90;;;;;;5073625;28;20060;-50
2021/07/09 04:32:46;;;;;;;60.80;38.20;;;15.30;99.90;;;;;;5077581;28;20063;-50
2021/07/09 04:35:12;;;;;;;61.00;37.78;;;15.30;99.90;;;;;;5069363;28;20053;-51
2021/07/09 04:37:41;;;;;;;57.92;38.60;;;15.40;99.90;;;;;;5077412;28;20066;-49
2021/07/09 04:40:08;;;;;;;59.63;38.50;;;15.40;99.90;;;;;;5071147;28;20048;-50
2021/07/09 04:42:35;;;;;;;57.33;37.40;;;15.40;99.90;;;;;;5071184;28;20044;-51
2021/07/09 04:45:06;;;;;;;57.55;37.38;;;15.40;99.90;;;;;;5068556;28;20056;-49
2021/07/09 04:47:33;;;;;;;59.47;38.70;;;15.40;99.90;;;;;;5075368;28;20064;-51
2021/07/09 04:50:02;;;;;;;58.28;37.13;;;15.40;99.90;;;;;;5073765;28;20098;-48
2021/07/09 04:52:33;;;;;;;60.72;39.15;;;15.50;99.90;;;;;;5069132;28;20048;-53
2021/07/09 04:55:00;;;;;;;61.58;39.70;;;15.50;99.90;;;;;;5069427;28;20072;-55
2021/07/09 04:57:26;;;;;;;58.72;36.95;;;15.60;99.90;;;;;;5069548;28;20053;-53
2021/07/09 04:59:55;;;;;;;62.80;37.65;;;15.70;99.90;;;;;;5086167;28;20071;-55
2021/07/09 05:02:22;;;;;;;58.95;36.60;;;15.70;99.90;;;;;;5088805;28;20674;-56
2021/07/09 05:04:53;;;;;;;51.50;36.08;;;15.80;99.90;;;;;;5072718;28;20055;-56
2021/07/09 05:07:19;;;;;;;55.13;37.17;;;15.90;99.90;;;;;;5089054;28;20499;-55
2021/07/09 05:09:50;;;;;;;53.20;35.33;;;16.10;99.90;;;;;;5085747;28;20055;-55
2021/07/09 05:12:17;;;;;;;48.80;35.28;;;16.30;99.90;;;;;;5089389;28;20101;-55
2021/07/09 05:14:43;;;;;;;44.05;32.17;;;16.60;99.90;;;;;;5070905;28;20375;-55
2021/07/09 05:17:12;;;;;;;37.90;31.70;;;17.00;99.90;;;;;;5049899;28;20060;-56
2021/07/09 05:19:39;;;;;;;40.03;30.02;;;17.30;99.90;;;;;;5084747;28;20536;-55
2021/07/09 05:22:10;;;;;;;37.58;30.65;;;17.60;99.90;;;;;;5095089;28;20568;-54
2021/07/09 05:24:39;;;;;;;32.35;27.58;;;17.90;99.90;;;;;;5075882;28;20052;-55
2021/07/09 05:27:06;;;;;;;33.10;28.75;;;18.00;99.90;;;;;;5074361;28;20124;-53
2021/07/09 05:29:32;;;;;;;36.92;29.00;;;18.20;99.90;;;;;;5090750;28;20054;-55
2021/07/09 05:31:58;;;;;;;43.58;38.35;;;18.30;99.90;;;;;;5088022;28;20052;-55
2021/07/09 05:34:24;;;;;;;42.88;38.45;;;18.60;99.90;;;;;;5079657;28;20043;-55
2021/07/09 05:36:51;;;;;;;38.67;32.15;;;18.70;99.90;;;;;;5088180;28;20055;-56
2021/07/09 05:39:17;;;;;;;43.50;38.75;;;18.80;99.90;;;;;;5088201;28;20088;-56
2021/07/09 05:41:46;;;;;;;30.30;26.90;;;18.70;99.90;;;;;;5072215;28;20052;-54
2021/07/09 05:44:12;;;;;;;32.30;28.23;;;18.70;99.90;;;;;;5067511;28;20056;-55
2021/07/09 05:46:42;;;;;;;32.67;28.48;;;18.60;99.90;;;;;;5073409;28;20067;-56
2021/07/09 05:49:11;;;;;;;32.67;27.23;;;18.60;99.90;;;;;;5084623;28;20048;-55
2021/07/09 05:51:37;;;;;;;34.80;27.20;;;18.60;99.90;;;;;;5088474;28;20163;-56
2021/07/09 05:54:03;;;;;;;32.45;27.10;;;18.90;99.90;;;;;;5088206;28;20628;-54
2021/07/09 05:56:32;;;;;;;44.72;38.67;;;19.10;99.90;;;;;;5094306;28;20488;-55
2021/07/09 05:59:03;;;;;;;49.00;43.78;;;19.10;99.90;;;;;;5063938;28;20075;-56
2021/07/09 06:01:29;;;;;;;50.47;45.33;;;19.30;99.90;;;;;;5084994;28;20048;-52
2021/07/09 06:03:56;;;;;;;35.22;31.27;;;19.30;99.90;;;;;;5076604;28;20105;-59
2021/07/09 06:06:25;;;;;;;27.98;24.20;;;19.40;99.90;;;;;;5079318;28;20044;-60
2021/07/09 06:08:51;;;;;;;26.98;24.33;;;19.40;99.90;;;;;;5075124;28;20059;-60
2021/07/09 06:11:21;;;;;;;28.67;25.52;;;19.70;99.90;;;;;;5063740;28;20051;-55
2021/07/09 06:13:47;;;;;;;31.58;28.27;;;19.70;99.90;;;;;;5067112;28;20489;-51
2021/07/09 06:16:17;;;;;;;31.70;28.52;;;19.70;99.90;;;;;;5075089;28;20416;-54
2021/07/09 06:18:45;;;;;;;46.97;41.95;;;19.80;99.90;;;;;;5083247;28;20044;-55
2021/07/09 06:21:14;;;;;;;30.80;27.42;;;19.90;99.90;;;;;;5072736;28;20139;-55
2021/07/09 06:23:43;;;;;;;36.55;32.22;;;20.00;99.90;;;;;;5066257;28;20139;-54
2021/07/09 06:26:12;;;;;;;42.75;38.40;;;19.90;99.90;;;;;;5070465;28;20135;-55
2021/07/09 06:28:38;;;;;;;28.10;23.38;;;20.00;99.90;;;;;;5077549;28;20055;-55
2021/07/09 06:31:06;;;;;;;27.05;24.13;;;20.30;99.90;;;;;;5084106;28;20044;-52
2021/07/09 06:33:34;;;;;;;41.35;37.03;;;20.40;99.90;;;;;;5087577;28;20095;-54
2021/07/09 06:36:01;;;;;;;26.17;23.38;;;20.60;99.90;;;;;;5089468;28;20561;-54
2021/07/09 06:38:27;;;;;;;28.45;25.33;;;20.70;99.90;;;;;;5083231;28;20047;-54
2021/07/09 06:40:53;;;;;;;23.83;21.42;;;20.70;99.90;;;;;;5071077;28;20122;-52
2021/07/09 06:43:20;;;;;;;27.13;22.40;;;20.50;99.90;;;;;;5077723;28;20058;-55
2021/07/09 06:45:50;;;;;;;20.40;18.08;;;20.40;99.90;;;;;;5079453;28;20087;-55
2021/07/09 06:48:19;;;;;;;22.98;20.40;;;20.70;99.90;;;;;;5057863;28;20750;-54
2021/07/09 06:50:48;;;;;;;23.63;21.17;;;20.80;99.90;;;;;;5087036;28;20066;-52
2021/07/09 06:53:15;;;;;;;26.00;23.20;;;20.80;99.90;;;;;;5082635;28;20051;-56
2021/07/09 06:55:45;;;;;;;26.83;24.13;;;21.00;99.90;;;;;;5078196;28;20051;-54
2021/07/09 06:58:11;;;;;;;32.63;29.10;;;21.00;99.90;;;;;;5072988;28;20044;-53
2021/07/09 07:00:40;;;;;;;23.77;21.27;;;21.20;99.90;;;;;;5076937;28;20059;-55
2021/07/09 07:03:07;;;;;;;28.45;25.67;;;21.00;99.90;;;;;;5101720;28;20040;-55
2021/07/09 07:05:34;;;;;;;40.55;36.55;;;20.90;99.90;;;;;;5077503;28;20048;-55
2021/07/09 07:08:33;;;;;;;21.90;19.13;;;20.70;99.90;;;;;;5083327;28;20045;-53
2021/07/09 07:10:59;;;;;;;22.73;20.38;;;20.60;99.90;;;;;;5013712;28;20046;-55
2021/07/09 07:13:26;;;;;;;29.13;25.30;;;20.50;99.90;;;;;;5003826;28;20050;-54
2021/07/09 07:15:56;;;;;;;20.80;18.73;;;20.90;99.90;;;;;;5004305;28;20057;-55
2021/07/09 07:18:25;;;;;;;21.80;17.48;;;21.30;99.90;;;;;;5001784;28;20152;-54
2021/07/09 07:20:54;;;;;;;23.00;20.63;;;21.40;99.90;;;;;;5005895;28;20046;-55
2021/07/09 07:23:21;;;;;;;20.98;18.63;;;21.50;99.90;;;;;;5006370;28;20062;-54
2021/07/09 07:25:51;;;;;;;20.05;17.95;;;21.40;99.90;;;;;;5014035;28;20085;-54
2021/07/09 07:28:19;;;;;;;17.30;15.30;;;21.90;99.90;;;;;;5004439;28;20672;-55
2021/07/09 07:30:46;;;;;;;37.08;33.30;;;22.20;99.90;;;;;;5003903;28;20042;-56
2021/07/09 07:33:18;;;;;;;18.23;14.88;;;22.70;99.90;;;;;;5002384;28;20410;-56
2021/07/09 07:35:48;;;;;;;16.15;14.40;;;23.00;99.90;;;;;;5006566;28;20052;-57
2021/07/09 07:38:19;;;;;;;17.67;14.55;;;23.30;99.90;;;;;;5004044;28;20115;-55
2021/07/09 07:40:46;;;;;;;16.08;13.15;;;23.00;99.90;;;;;;5004407;28;20096;-56
2021/07/09 07:43:15;;;;;;;13.95;12.55;;;22.90;99.90;;;;;;5011548;28;20045;-56
2021/07/09 07:45:46;;;;;;;17.20;15.43;;;22.70;99.90;;;;;;5024980;28;20112;-56
2021/07/09 07:48:18;;;;;;;15.05;13.13;;;22.80;99.90;;;;;;5074419;28;20128;-56
2021/07/09 07:50:48;;;;;;;14.55;11.73;;;22.40;99.90;;;;;;5071097;28;20257;-56
2021/07/09 07:53:18;;;;;;;15.52;13.93;;;22.30;99.90;;;;;;5077259;28;20090;-56
2021/07/09 07:55:45;;;;;;;14.95;13.35;;;22.10;99.90;;;;;;5070108;28;20048;-55
2021/07/09 07:58:14;;;;;;;14.75;13.20;;;21.90;99.90;;;;;;5083805;28;20476;-51
2021/07/09 08:00:49;;;;;;;14.75;12.50;;;21.80;99.90;;;;;;5085131;28;20117;-56
2021/07/09 08:03:18;;;;;;;13.50;12.13;;;21.60;99.90;;;;;;5084953;28;20067;-56
2021/07/09 08:05:45;;;;;;;14.30;12.85;;;21.40;99.90;;;;;;5070282;28;20062;-56
2021/07/09 08:08:14;;;;;;;14.57;12.23;;;21.40;99.90;;;;;;5082000;28;20052;-56
2021/07/09 08:10:45;;;;;;;15.73;13.38;;;21.80;99.90;;;;;;5086862;28;20059;-55
2021/07/09 08:13:11;;;;;;;12.60;11.32;;;22.10;99.90;;;;;;5077886;28;20423;-56
2021/07/09 08:15:46;;;;;;;21.58;19.38;;;22.30;99.90;;;;;;5076043;28;20055;-55
2021/07/09 08:18:12;;;;;;;15.18;13.40;;;22.60;99.90;;;;;;5086649;28;20040;-55
2021/07/09 08:20:44;;;;;;;13.80;12.50;;;23.10;99.90;;;;;;5088786;28;20051;-55
2021/07/09 08:23:11;;;;;;;17.25;14.90;;;23.60;99.90;;;;;;5090393;28;20048;-56
2021/07/09 08:25:37;;;;;;;12.10;10.80;;;24.00;99.90;;;;;;5079240;28;20161;-49
2021/07/09 08:28:04;;;;;;;10.32;8.02;;;24.10;96.30;;;;;;5083128;28;20096;-55
2021/07/09 08:30:33;;;;;;;9.55;8.45;;;23.90;93.20;;;;;;5082294;28;20496;-54
2021/07/09 08:32:59;;;;;;;10.15;8.60;;;23.80;95.10;;;;;;5079483;28;20060;-54
2021/07/09 08:35:30;;;;;;;9.00;8.05;;;24.00;93.90;;;;;;5089122;28;20055;-53
2021/07/09 08:37:57;;;;;;;7.68;6.45;;;24.20;92.70;;;;;;5086698;28;20057;-52
2021/07/09 08:40:23;;;;;;;9.00;7.32;;;23.90;92.40;;;;;;5086087;28;20047;-51
2021/07/09 08:42:50;;;;;;;10.15;6.25;;;24.10;91.00;;;;;;5075007;28;20045;-51
2021/07/09 08:45:16;;;;;;;8.88;6.90;;;24.00;90.70;;;;;;5071300;28;20060;-54
2021/07/09 08:47:48;;;;;;;9.02;6.28;;;23.90;91.40;;;;;;5081767;28;20049;-55
2021/07/09 08:50:17;;;;;;;8.77;7.95;;;24.20;86.40;;;;;;5077293;28;20135;-51
2021/07/09 08:52:51;;;;;;;9.70;7.65;;;23.90;90.20;;;;;;5071913;28;20060;-48
2021/07/09 08:55:19;;;;;;;10.25;8.30;;;23.30;88.10;;;;;;5083847;28;20504;-55
2021/07/09 08:57:51;;;;;;;10.05;8.32;;;23.40;91.30;;;;;;5075637;28;20507;-51
2021/07/09 09:00:21;;;;;;;9.88;7.90;;;23.50;91.60;;;;;;5074284;28;20074;-53
2021/07/09 09:02:56;;;;;;;8.30;7.25;;;23.40;91.90;;;;;;5074117;28;20052;-53
2021/07/09 09:05:28;;;;;;;9.88;7.97;;;23.60;90.90;;;;;;5088074;28;20048;-52
2021/07/09 09:07:59;;;;;;;15.20;13.38;;;24.00;87.30;;;;;;5071836;28;20076;-53
2021/07/09 09:10:55;;;;;;;10.35;6.63;;;24.20;84.40;;;;;;5091069;28;20044;-52
2021/07/09 09:13:33;;;;;;;9.27;7.53;;;24.40;84.50;;;;;;5086034;28;20104;-55
2021/07/09 09:16:14;;;;;;;12.93;11.13;;;24.40;83.70;;;;;;5069252;28;20162;-52
2021/07/09 09:18:47;;;;;;;9.77;7.30;;;24.10;77.40;;;;;;5086907;28;20435;-54
2021/07/09 09:21:24;;;;;;;8.68;7.15;;;24.10;80.90;;;;;;5089368;28;20101;-54
2021/07/09 09:23:53;;;;;;;14.30;12.90;;;24.50;83.60;;;;;;5082879;28;20044;-52
2021/07/09 09:26:44;;;;;;;6.10;4.93;;;24.90;79.50;;;;;;5072850;28;20048;-50
2021/07/09 09:29:35;;;;;;;7.22;4.63;;;25.50;68.90;;;;;;5083546;28;20048;-53
2021/07/09 09:32:10;;;;;;;8.00;5.43;;;25.90;62.80;;;;;;5025387;28;20053;-52
2021/07/09 09:34:46;;;;;;;5.32;4.05;;;26.10;64.90;;;;;;5030796;28;20049;-52
2021/07/09 09:37:28;;;;;;;5.18;4.03;;;26.50;63.40;;;;;;5042871;28;20060;-51
2021/07/09 09:39:57;;;;;;;7.38;6.68;;;25.90;64.60;;;;;;5017492;28;20053;-52
2021/07/09 09:42:34;;;;;;;10.40;8.85;;;25.70;69.10;;;;;;5016836;28;20547;-53
2021/07/09 09:45:04;;;;;;;7.82;7.03;;;25.80;70.50;;;;;;5022579;28;20130;-56
2021/07/09 09:47:35;;;;;;;7.78;6.57;;;25.80;70.60;;;;;;5009190;28;20077;-48
2021/07/09 09:50:08;;;;;;;13.25;11.98;;;26.20;70.10;;;;;;5005836;28;20084;-50
2021/07/09 09:52:40;;;;;;;7.63;6.43;;;26.60;68.80;;;;;;5010869;28;20052;-52
2021/07/09 09:55:29;;;;;;;6.03;5.05;;;26.30;66.50;;;;;;5023329;28;20055;-54
2021/07/09 09:58:15;;;;;;;7.35;5.72;;;26.00;64.00;;;;;;5026368;28;20060;-55
2021/07/09 10:00:47;;;;;;;13.75;12.38;;;25.50;64.40;;;;;;5021530;28;20554;-54
2021/07/09 10:03:16;;;;;;;8.95;7.20;;;26.00;64.80;;;;;;5011775;28;20096;-53
2021/07/09 10:05:49;;;;;;;8.55;5.78;;;25.60;65.40;;;;;;5032556;28;20053;-52
2021/07/09 10:08:24;;;;;;;7.32;6.50;;;25.80;66.80;;;;;;5018518;28;20432;-53
2021/07/09 10:10:57;;;;;;;8.93;7.15;;;26.00;64.30;;;;;;5076396;28;20067;-53
2021/07/09 10:13:30;;;;;;;8.32;6.07;;;26.10;64.30;;;;;;5094285;28;20043;-56
2021/07/09 10:16:04;;;;;;;7.10;5.78;;;26.30;62.70;;;;;;5055639;28;20048;-52
2021/07/09 10:18:40;;;;;;;6.38;5.78;;;26.20;62.50;;;;;;5084502;28;20101;-53
2021/07/09 10:21:10;;;;;;;6.63;5.90;;;26.00;62.90;;;;;;5077660;28;20153;-53
2021/07/09 10:23:58;;;;;;;8.65;5.95;;;26.50;64.20;;;;;;5074313;28;20122;-56
2021/07/09 10:26:28;;;;;;;6.75;5.50;;;27.40;62.90;;;;;;5082061;28;20090;-52
2021/07/09 10:29:11;;;;;;;7.45;6.03;;;27.00;61.10;;;;;;5077050;28;20054;-51
2021/07/09 10:31:50;;;;;;;8.40;6.75;;;26.50;60.20;;;;;;5081410;28;20040;-50
2021/07/09 10:34:23;;;;;;;7.57;6.15;;;26.20;63.00;;;;;;5072884;28;20080;-54
2021/07/09 10:37:08;;;;;;;8.73;7.50;;;26.60;59.30;;;;;;5081977;28;20119;-54
2021/07/09 10:39:45;;;;;;;8.05;7.25;;;26.70;59.70;;;;;;5075683;28;20052;-53
2021/07/09 10:42:12;;;;;;;7.75;6.68;;;26.90;63.10;;;;;;5072560;28;20051;-54
2021/07/09 10:44:57;;;;;;;6.90;5.85;;;27.10;62.90;;;;;;5055400;28;20060;-57
2021/07/09 10:47:38;;;;;;;10.43;9.27;;;26.90;61.50;;;;;;5075110;28;20047;-53
2021/07/09 10:50:07;;;;;;;10.18;6.60;;;27.00;63.40;;;;;;5079409;28;20048;-55
2021/07/09 10:52:57;;;;;;;8.07;6.93;;;26.80;60.60;;;;;;5086590;28;20581;-53
2021/07/09 10:55:29;;;;;;;3.47;2.58;;;26.60;57.40;;;;;;5081266;28;20499;-56
2021/07/09 10:58:33;;;;;;;4.53;3.60;;;26.60;56.80;;;;;;5068742;28;20109;-57
2021/07/09 11:01:18;;;;;;;4.97;3.40;;;26.60;55.40;;;;;;5002857;28;20097;-54
2021/07/09 11:03:51;;;;;;;4.90;2.90;;;26.80;54.20;;;;;;5003634;28;20137;-56
2021/07/09 11:06:37;;;;;;;;;;;27.00;56.30;;;;;;4986936;28;20112;-55
2021/07/09 11:09:06;;;;;;;5.70;3.00;;;27.40;56.80;;;;;;4985871;28;19929;-53
2021/07/09 11:11:47;;;;;;;5.20;3.85;;;27.80;53.20;;;;;;4995455;28;20062;-57
2021/07/09 11:14:40;;;;;;;4.95;3.10;;;28.00;50.60;;;;;;4988201;28;20053;-52
2021/07/09 11:17:19;;;;;;;4.47;3.05;;;28.10;51.10;;;;;;5002778;28;20042;-57
2021/07/09 11:19:46;;;;;;;4.30;3.10;;;28.30;51.40;;;;;;5005566;28;20057;-57
2021/07/09 11:22:13;;;;;;;5.18;3.47;;;28.00;53.40;;;;;;4999162;28;20153;-56
2021/07/09 11:24:55;;;;;;;5.85;4.78;;;27.70;53.50;;;;;;4988802;28;20062;-56
2021/07/09 11:27:27;;;;;;;4.75;2.95;;;27.60;54.70;;;;;;4972828;28;20105;-57
2021/07/09 11:30:01;;;;;;;5.30;3.25;;;28.10;53.30;;;;;;4999117;28;20056;-55
2021/07/09 11:32:35;;;;;;;4.15;3.28;;;28.00;54.40;;;;;;5003433;28;20046;-57
2021/07/09 11:35:05;;;;;;;6.25;3.70;;;27.90;53.40;;;;;;4988877;28;20521;-55
2021/07/09 11:37:33;;;;;;;5.72;3.28;;;28.10;52.50;;;;;;5024234;28;20045;-56
2021/07/09 11:40:06;;;;;;;3.53;3.20;;;28.10;53.30;;;;;;5070913;28;20110;-54
2021/07/09 11:42:35;;;;;;;5.20;3.20;;;28.40;52.20;;;;;;5059711;28;20098;-57
2021/07/09 11:45:06;;;;;;;4.95;3.30;;;27.90;53.30;;;;;;5092158;28;20093;-54
2021/07/09 11:47:38;;;;;;;4.95;3.30;;;27.70;52.50;;;;;;5052841;28;20486;-53
2021/07/09 11:50:12;;;;;;;6.30;4.97;;;27.90;52.70;;;;;;5071066;28;20071;-55
2021/07/09 11:52:43;;;;;;;6.63;4.47;;;27.70;53.80;;;;;;5071113;28;20143;-57
2021/07/09 11:55:18;;;;;;;6.28;3.97;;;27.20;53.70;;;;;;5076961;28;20045;-57
2021/07/09 11:57:50;;;;;;;4.82;3.97;;;27.60;55.30;;;;;;5079045;28;20578;-58
2021/07/09 12:00:19;;;;;;;5.75;4.05;;;28.10;55.20;;;;;;5070500;28;20047;-57
2021/07/09 12:02:47;;;;;;;8.30;6.20;;;28.20;54.60;;;;;;5070230;28;20052;-49
2021/07/09 12:05:16;;;;;;;6.72;5.03;;;27.80;55.00;;;;;;5076802;28;20123;-51
2021/07/09 12:07:47;;;;;;;4.75;4.25;;;28.50;56.10;;;;;;5070494;28;20052;-55
2021/07/09 12:10:20;;;;;;;14.07;12.80;;;28.30;51.10;;;;;;5076501;28;20044;-54
2021/07/09 12:13:03;;;;;;;5.80;4.57;;;28.60;51.70;;;;;;5090882;28;20048;-52
2021/07/09 12:15:30;;;;;;;5.65;3.83;;;28.60;50.10;;;;;;5095188;28;20109;-56
2021/07/09 12:18:02;;;;;;;6.70;4.38;;;28.30;51.70;;;;;;5076272;28;20136;-54
2021/07/09 12:20:35;;;;;;;5.20;3.70;;;28.10;52.40;;;;;;5070245;28;20048;-54
2021/07/09 12:23:16;;;;;;;12.90;4.63;;;27.20;52.10;;;;;;5069963;28;20500;-53
2021/07/09 12:25:50;;;;;;;6.15;3.95;;;27.40;52.00;;;;;;5072534;28;20040;-52
2021/07/09 12:28:21;;;;;;;7.07;5.38;;;27.20;51.90;;;;;;5071967;28;20067;-53
2021/07/09 12:30:50;;;;;;;6.03;4.05;;;27.40;52.90;;;;;;5090228;28;20052;-56
2021/07/09 12:33:25;;;;;;;9.48;7.35;;;27.50;52.40;;;;;;5088516;28;20575;-52
2021/07/09 12:36:04;;;;;;;7.07;6.25;;;27.90;52.20;;;;;;5074357;28;20086;-55
2021/07/09 12:38:33;;;;;;;6.10;4.95;;;27.70;51.00;;;;;;5085754;28;20048;-55
2021/07/09 12:41:07;;;;;;;4.47;3.30;;;27.70;53.10;;;;;;5092549;28;20494;-56
2021/07/09 12:43:50;;;;;;;5.88;3.25;;;27.50;52.30;;;;;;5075142;28;20060;-53
2021/07/09 12:46:20;;;;;;;6.55;3.63;;;27.30;52.30;;;;;;5069617;28;20052;-52
2021/07/09 12:49:01;;;;;;;4.78;3.47;;;26.90;51.50;;;;;;5070369;28;20052;-51